Time;durP1;ratioP1;P1;durP2;ratioP2;P2;SDS_P1;SDS_P2;PMS_P1;PMS_P2;Temp;Humidity;BMP_temperature;BMP_pressure;BME280_temperature;BME280_humidity;BME280_pressure;Samples;Min_cycle;Max_cycle;Signal;HPM_P1;HPM_P2
2022/09/12 00:00:10;;;;;;;9.77;8.77;;;14.60;99.90;;;;;;4953223;28;20047;-74
2022/09/12 00:02:36;;;;;;;8.57;7.68;;;14.50;99.90;;;;;;4953098;29;20051;-74
2022/09/12 00:05:06;;;;;;;7.20;6.50;;;14.50;99.90;;;;;;4936422;29;20059;-74
2022/09/12 00:07:32;;;;;;;8.00;7.20;;;14.50;99.90;;;;;;4921946;29;20146;-74
2022/09/12 00:10:15;;;;;;;9.57;8.65;;;14.50;99.90;;;;;;4952767;28;20077;-74
2022/09/12 00:12:48;;;;;;;9.27;7.60;;;14.50;99.90;;;;;;4954281;28;20110;-74
2022/09/12 00:15:37;;;;;;;8.40;7.35;;;14.40;99.90;;;;;;4923001;29;20054;-74
2022/09/12 00:18:04;;;;;;;9.40;8.27;;;14.30;99.90;;;;;;4953068;29;20103;-74
2022/09/12 00:20:31;;;;;;;10.63;8.85;;;14.30;99.90;;;;;;4916785;29;20161;-73
2022/09/12 00:22:57;;;;;;;9.23;8.15;;;14.40;99.90;;;;;;4926695;29;20059;-74
2022/09/12 00:28:12;;;;;;;11.15;8.73;;;14.30;99.90;;;;;;4953152;29;20051;-75
2022/09/12 00:30:57;;;;;;;9.68;8.63;;;14.30;99.90;;;;;;4953098;29;20086;-74
2022/09/12 00:33:22;;;;;;;9.27;8.38;;;14.20;99.90;;;;;;4951803;29;20055;-74
2022/09/12 00:38:53;;;;;;;11.57;10.43;;;14.30;99.90;;;;;;4951867;29;20055;-74
2022/09/12 00:41:38;;;;;;;12.32;11.02;;;14.30;99.90;;;;;;4952979;29;20043;-74
2022/09/12 00:44:46;;;;;;;12.38;10.85;;;14.20;99.90;;;;;;4938906;28;20140;-74
2022/09/12 00:47:34;;;;;;;9.75;8.68;;;14.20;99.90;;;;;;4957540;28;20055;-74
2022/09/12 00:50:13;;;;;;;10.90;9.90;;;14.10;99.90;;;;;;4972444;28;20094;-74
2022/09/12 00:53:01;;;;;;;;;;;14.10;99.90;;;;;;4943540;29;20428;-74
2022/09/12 00:55:58;;;;;;;10.55;9.55;;;14.10;99.90;;;;;;4973946;28;19933;-74
2022/09/12 00:58:28;;;;;;;12.77;10.13;;;14.10;99.90;;;;;;4956002;28;20523;-74
2022/09/12 01:00:54;;;;;;;10.10;9.05;;;14.10;99.90;;;;;;4943457;28;20530;-74
2022/09/12 01:03:22;;;;;;;8.82;7.72;;;14.10;99.90;;;;;;4926049;28;20058;-74
2022/09/12 01:06:25;;;;;;;11.98;8.13;;;14.10;99.90;;;;;;4959419;28;20179;-74
2022/09/12 01:08:55;;;;;;;8.47;7.77;;;14.00;99.90;;;;;;4976529;28;20086;-74
2022/09/12 01:11:24;;;;;;;8.00;7.20;;;14.00;99.90;;;;;;4959396;28;20278;-74
2022/09/12 01:13:53;;;;;;;7.50;6.80;;;14.00;99.90;;;;;;4959051;28;20086;-74
2022/09/12 01:16:22;;;;;;;8.30;7.03;;;13.90;99.90;;;;;;4958972;28;20470;-74
2022/09/12 01:19:11;;;;;;;6.60;6.00;;;13.90;99.90;;;;;;4942870;28;20054;-74
2022/09/12 01:22:23;;;;;;;9.80;6.93;;;14.00;99.90;;;;;;4959218;28;20050;-74
2022/09/12 01:25:26;;;;;;;7.43;6.72;;;13.90;99.90;;;;;;4959289;28;20038;-74
2022/09/12 01:28:11;;;;;;;9.55;8.55;;;13.90;99.90;;;;;;4959029;28;20447;-74
2022/09/12 01:31:10;;;;;;;7.78;6.97;;;13.90;99.90;;;;;;4974822;28;20134;-74
2022/09/12 01:34:05;;;;;;;8.73;7.90;;;13.80;99.90;;;;;;4975465;28;20055;-75
2022/09/12 01:37:00;;;;;;;7.97;7.15;;;13.80;99.90;;;;;;4958847;28;20109;-74
2022/09/12 01:39:54;;;;;;;7.13;6.43;;;13.70;99.90;;;;;;4942080;28;20050;-74
2022/09/12 01:42:39;;;;;;;8.13;7.30;;;13.70;99.90;;;;;;4975205;28;20062;-73
2022/09/12 01:45:18;;;;;;;7.45;6.75;;;13.70;99.90;;;;;;4958432;28;20109;-74
2022/09/12 01:48:09;;;;;;;9.10;7.07;;;13.60;99.90;;;;;;4958761;28;20088;-74
2022/09/12 01:50:59;;;;;;;7.72;7.05;;;13.70;99.90;;;;;;4973740;28;20441;-74
2022/09/12 01:53:41;;;;;;;8.23;7.53;;;13.60;99.90;;;;;;4957256;28;20105;-74
2022/09/12 01:56:31;;;;;;;8.95;8.15;;;13.60;99.90;;;;;;4974003;28;20059;-74
2022/09/12 01:59:14;;;;;;;6.88;6.28;;;13.50;99.90;;;;;;4958138;28;20514;-74
2022/09/12 02:02:22;;;;;;;7.28;6.57;;;13.50;99.90;;;;;;4975637;28;20128;-74
2022/09/12 02:05:15;;;;;;;7.40;6.70;;;13.50;99.90;;;;;;4959824;28;20043;-74
2022/09/12 02:07:47;;;;;;;6.18;5.68;;;13.40;99.90;;;;;;4974371;28;20053;-74
2022/09/12 02:10:23;;;;;;;4.97;4.57;;;13.40;99.90;;;;;;4957909;28;20058;-74
2022/09/12 02:13:04;;;;;;;5.72;5.22;;;13.40;99.90;;;;;;4974616;28;20093;-74
2022/09/12 02:15:48;;;;;;;7.28;6.35;;;13.30;99.90;;;;;;4941883;28;20094;-74
2022/09/12 02:18:26;;;;;;;7.10;6.50;;;13.30;99.90;;;;;;4973399;28;20098;-74
2022/09/12 02:20:55;;;;;;;7.60;6.90;;;13.20;99.90;;;;;;4957580;28;20059;-74
2022/09/12 02:23:37;;;;;;;6.57;5.97;;;13.20;99.90;;;;;;4957875;28;20130;-74
2022/09/12 02:26:19;;;;;;;6.97;6.37;;;13.20;99.90;;;;;;4974462;28;20069;-74
2022/09/12 02:29:06;;;;;;;7.13;6.53;;;13.20;99.90;;;;;;4974617;28;20045;-74
2022/09/12 02:31:51;;;;;;;9.20;8.40;;;13.20;99.90;;;;;;4925760;28;20070;-74
2022/09/12 02:34:38;;;;;;;8.15;7.32;;;13.20;99.90;;;;;;4958282;28;20050;-74
2022/09/12 02:37:45;;;;;;;9.35;8.45;;;13.20;99.90;;;;;;4973825;28;20058;-74
2022/09/12 02:40:13;;;;;;;8.25;7.45;;;13.10;99.90;;;;;;4958120;28;20440;-74
2022/09/12 02:42:40;;;;;;;8.98;8.18;;;13.00;99.90;;;;;;4956989;28;20047;-73
2022/09/12 02:45:13;;;;;;;;;;;13.10;99.90;;;;;;4943383;28;20089;-74
2022/09/12 02:48:31;;;;;;;7.78;6.70;;;13.00;99.90;;;;;;4955380;28;19922;-74
2022/09/12 02:50:59;;;;;;;9.55;8.55;;;13.00;99.90;;;;;;4958001;28;20046;-74
2022/09/12 02:53:27;;;;;;;8.10;7.40;;;13.00;99.90;;;;;;4957529;28;20058;-74
2022/09/12 02:55:53;;;;;;;8.98;8.13;;;13.00;99.90;;;;;;4956961;28;20063;-73
2022/09/12 02:58:25;;;;;;;7.40;6.78;;;13.00;99.90;;;;;;4957158;28;20038;-74
2022/09/12 03:01:14;;;;;;;9.45;8.45;;;12.90;99.90;;;;;;4973040;28;20142;-74
2022/09/12 03:04:19;;;;;;;8.38;7.57;;;12.90;99.90;;;;;;4957925;28;20061;-73
2022/09/12 03:07:23;;;;;;;9.48;8.05;;;13.00;99.90;;;;;;4972853;28;20114;-74
2022/09/12 03:10:17;;;;;;;10.35;9.25;;;13.00;99.90;;;;;;4957022;28;20145;-74
2022/09/12 03:12:54;;;;;;;11.45;10.07;;;13.00;99.90;;;;;;4957547;28;20054;-74
2022/09/12 03:16:25;;;;;;;15.13;12.77;;;13.10;99.90;;;;;;4974140;28;20054;-74
2022/09/12 03:19:27;;;;;;;14.75;11.60;;;13.00;99.90;;;;;;4933056;29;20052;-74
2022/09/12 03:22:59;;;;;;;12.70;10.27;;;13.10;99.90;;;;;;4930401;28;20050;-74
2022/09/12 03:25:33;;;;;;;12.23;10.88;;;13.10;99.90;;;;;;4933875;29;20055;-73
2022/09/12 03:28:08;;;;;;;11.20;9.93;;;13.10;99.90;;;;;;4917272;29;20459;-73
2022/09/12 03:30:55;;;;;;;8.00;7.13;;;13.00;99.90;;;;;;4948321;28;20436;-74
2022/09/12 03:33:29;;;;;;;8.77;8.00;;;13.00;99.90;;;;;;4958072;28;20050;-73
2022/09/12 03:36:04;;;;;;;11.52;8.70;;;12.90;99.90;;;;;;4925357;28;20051;-73
2022/09/12 03:38:36;;;;;;;14.75;10.63;;;13.00;99.90;;;;;;4926091;28;20482;-74
2022/09/12 03:41:04;;;;;;;12.25;10.95;;;13.00;99.90;;;;;;4952010;29;20488;-74
2022/09/12 03:43:55;;;;;;;16.27;13.07;;;13.00;99.90;;;;;;4891722;29;20062;-74
2022/09/12 03:46:27;;;;;;;15.30;13.00;;;12.90;99.90;;;;;;4920034;29;20133;-74
2022/09/12 03:48:56;;;;;;;13.07;10.88;;;12.90;99.90;;;;;;4921711;29;20069;-74
2022/09/12 03:51:22;;;;;;;19.05;13.60;;;13.00;99.90;;;;;;4920691;29;20055;-74
2022/09/12 03:53:47;;;;;;;13.85;11.57;;;13.00;99.90;;;;;;4905322;29;20055;-74
2022/09/12 03:56:15;;;;;;;10.93;8.95;;;13.00;99.90;;;;;;4952185;29;20503;-74
2022/09/12 03:58:42;;;;;;;15.38;12.55;;;13.00;99.90;;;;;;4904614;29;20052;-74
2022/09/12 04:01:19;;;;;;;12.88;10.45;;;13.00;99.90;;;;;;4920381;29;20605;-74
2022/09/12 04:03:47;;;;;;;11.77;10.10;;;13.00;99.90;;;;;;4952384;29;20507;-73
2022/09/12 04:06:14;;;;;;;13.95;12.10;;;12.90;99.90;;;;;;4904286;29;20055;-74
2022/09/12 04:08:42;;;;;;;15.38;11.48;;;12.90;99.90;;;;;;4920452;29;20542;-73
2022/09/12 04:11:11;;;;;;;16.70;12.50;;;12.90;99.90;;;;;;4938582;28;20526;-74
2022/09/12 04:13:49;;;;;;;11.43;8.60;;;12.80;99.90;;;;;;4939807;28;20069;-74
2022/09/12 04:16:23;;;;;;;11.02;9.93;;;12.90;99.90;;;;;;4956983;28;20062;-73
2022/09/12 04:18:48;;;;;;;10.43;9.32;;;12.80;99.90;;;;;;4956274;28;20078;-73
2022/09/12 04:21:16;;;;;;;11.40;10.02;;;12.80;99.90;;;;;;4959910;28;20069;-74
2022/09/12 04:23:51;;;;;;;10.65;8.15;;;12.70;99.90;;;;;;4977389;28;20130;-74
2022/09/12 04:26:23;;;;;;;9.48;8.48;;;12.70;99.90;;;;;;4945440;28;20049;-74
2022/09/12 04:28:58;;;;;;;11.63;10.07;;;12.60;99.90;;;;;;4976724;28;20129;-74
2022/09/12 04:31:26;;;;;;;10.20;9.20;;;12.50;99.90;;;;;;4976478;28;20105;-74
2022/09/12 04:34:02;;;;;;;9.82;8.88;;;12.50;99.90;;;;;;4975733;28;20065;-74
2022/09/12 04:36:33;;;;;;;10.93;9.77;;;12.40;99.90;;;;;;4978476;28;20387;-78
2022/09/12 04:39:00;;;;;;;10.90;9.82;;;12.40;99.90;;;;;;4962544;28;20113;-77
2022/09/12 04:41:45;;;;;;;12.77;11.30;;;12.40;99.90;;;;;;4979860;28;20479;-77
2022/09/12 04:44:19;;;;;;;13.25;11.02;;;12.40;99.90;;;;;;4943844;28;20046;-77
2022/09/12 04:46:47;;;;;;;14.65;11.80;;;12.40;99.90;;;;;;4977260;28;20078;-72
2022/09/12 04:49:19;;;;;;;14.68;11.68;;;12.40;99.90;;;;;;4959922;28;20111;-73
2022/09/12 04:51:46;;;;;;;14.25;10.68;;;12.40;99.90;;;;;;4959413;28;20506;-73
2022/09/12 04:54:17;;;;;;;12.85;11.20;;;12.40;99.90;;;;;;4942819;28;20145;-73
2022/09/12 04:56:50;;;;;;;14.88;11.77;;;12.40;99.90;;;;;;4959977;28;20058;-73
2022/09/12 04:59:18;;;;;;;12.55;10.95;;;12.80;99.90;;;;;;4975398;28;20042;-75
2022/09/12 05:01:51;;;;;;;16.85;12.13;;;12.50;99.90;;;;;;4976318;28;20050;-76
2022/09/12 05:04:20;;;;;;;;;;;12.50;99.90;;;;;;4943748;28;20123;-75
2022/09/12 05:06:46;;;;;;;14.88;12.05;;;12.50;99.90;;;;;;4976579;28;19929;-75
2022/09/12 05:09:13;;;;;;;15.05;12.75;;;12.60;99.90;;;;;;4976279;28;20042;-74
2022/09/12 05:11:45;;;;;;;18.42;13.10;;;12.70;99.90;;;;;;4959525;28;20090;-73
2022/09/12 05:14:14;;;;;;;21.05;16.98;;;12.80;99.90;;;;;;4959251;28;20158;-73
2022/09/12 05:16:52;;;;;;;17.02;14.52;;;12.80;99.90;;;;;;4960376;28;20141;-73
2022/09/12 05:19:18;;;;;;;17.00;11.98;;;13.00;99.90;;;;;;4942948;28;20047;-73
2022/09/12 05:21:45;;;;;;;15.85;11.77;;;13.00;99.90;;;;;;4959354;28;20114;-73
2022/09/12 05:24:14;;;;;;;19.58;12.68;;;13.10;99.90;;;;;;4943060;28;20054;-73
2022/09/12 05:26:41;;;;;;;19.98;15.35;;;13.30;99.90;;;;;;4943340;28;20062;-73
2022/09/12 05:29:07;;;;;;;23.95;17.83;;;13.30;99.90;;;;;;4975142;28;20062;-73
2022/09/12 05:31:40;;;;;;;19.25;13.38;;;13.40;99.90;;;;;;4942656;28;20126;-73
2022/09/12 05:34:13;;;;;;;21.42;15.00;;;13.50;99.90;;;;;;4956438;28;20051;-73
2022/09/12 05:36:39;;;;;;;15.85;13.15;;;13.60;99.90;;;;;;4974743;28;20061;-73
2022/09/12 05:39:15;;;;;;;21.08;16.50;;;13.70;99.90;;;;;;4925992;28;20042;-73
2022/09/12 05:41:46;;;;;;;19.23;14.45;;;13.70;99.90;;;;;;4947498;28;20145;-73
2022/09/12 05:44:13;;;;;;;15.20;12.07;;;13.70;99.90;;;;;;4942672;28;20461;-73
2022/09/12 05:46:49;;;;;;;20.00;16.40;;;13.80;99.90;;;;;;4942420;28;20104;-73
2022/09/12 05:49:24;;;;;;;21.27;16.67;;;13.80;99.90;;;;;;4958641;28;20054;-73
2022/09/12 05:51:50;;;;;;;21.38;15.73;;;13.90;99.90;;;;;;4942308;28;20047;-73
2022/09/12 05:54:18;;;;;;;23.08;16.52;;;14.00;99.90;;;;;;4975145;28;20152;-73
2022/09/12 05:56:45;;;;;;;22.83;16.35;;;14.00;99.90;;;;;;4958941;28;20058;-73
2022/09/12 05:59:20;;;;;;;20.77;14.48;;;14.10;99.90;;;;;;4975822;28;20145;-73
2022/09/12 06:01:51;;;;;;;29.90;19.40;;;14.20;99.90;;;;;;4958416;28;20051;-73
2022/09/12 06:04:22;;;;;;;27.55;19.13;;;14.30;99.90;;;;;;4974752;28;20054;-73
2022/09/12 06:07:13;;;;;;;31.67;22.45;;;14.30;99.90;;;;;;4973946;28;20041;-73
2022/09/12 06:09:39;;;;;;;31.85;20.13;;;14.40;99.90;;;;;;4975703;28;20058;-73
2022/09/12 06:12:07;;;;;;;30.35;20.98;;;14.50;99.90;;;;;;4957936;28;20150;-73
2022/09/12 06:14:34;;;;;;;36.33;22.60;;;14.50;99.90;;;;;;4926572;28;20046;-73
2022/09/12 06:17:01;;;;;;;37.13;22.33;;;14.60;99.90;;;;;;4957835;28;20058;-73
2022/09/12 06:19:27;;;;;;;36.85;22.23;;;14.70;99.90;;;;;;4941474;28;20054;-73
2022/09/12 06:21:53;;;;;;;35.22;23.52;;;14.70;99.90;;;;;;4957493;28;20131;-73
2022/09/12 06:24:28;;;;;;;35.40;22.63;;;14.80;99.90;;;;;;4957822;28;20484;-73
2022/09/12 06:27:04;;;;;;;;;;;14.90;99.90;;;;;;4959321;28;20061;-78
2022/09/12 06:29:31;;;;;;;34.42;23.08;;;14.90;99.90;;;;;;4957648;28;20452;-77
2022/09/12 06:32:06;;;;;;;35.55;23.00;;;15.00;99.90;;;;;;4942877;28;20104;-76
2022/09/12 06:34:38;;;;;;;35.08;22.73;;;15.00;99.90;;;;;;4942192;28;20051;-76
2022/09/12 06:37:05;;;;;;;38.05;23.90;;;15.10;99.90;;;;;;4942246;28;20053;-76
2022/09/12 06:39:31;;;;;;;38.05;22.73;;;15.20;99.90;;;;;;4941477;28;20043;-76
2022/09/12 06:41:57;;;;;;;40.95;24.08;;;15.30;99.90;;;;;;4956338;28;20050;-76
2022/09/12 06:44:24;;;;;;;30.85;21.40;;;15.30;99.90;;;;;;4957655;28;20134;-76
2022/09/12 06:46:57;;;;;;;36.15;21.98;;;15.30;99.90;;;;;;4941695;28;20046;-76
2022/09/12 06:49:24;;;;;;;;;;;15.40;99.90;;;;;;4957710;28;20065;-76
2022/09/12 06:51:56;;;;;;;38.03;24.35;;;15.40;99.90;;;;;;4974097;28;19922;-76
2022/09/12 06:54:22;;;;;;;39.83;22.90;;;15.40;99.90;;;;;;4940993;28;20123;-76
2022/09/12 06:56:55;;;;;;;39.42;23.77;;;15.50;99.90;;;;;;4957630;28;20104;-76
2022/09/12 06:59:47;;;;;;;36.03;22.60;;;15.50;99.90;;;;;;4941731;28;20134;-76
2022/09/12 07:02:13;;;;;;;41.17;24.50;;;15.60;99.90;;;;;;4957985;28;20051;-76
2022/09/12 07:04:39;;;;;;;36.67;23.92;;;15.60;99.90;;;;;;4940718;28;20081;-76
2022/09/12 07:07:06;;;;;;;39.70;24.08;;;15.70;99.90;;;;;;4957302;28;20496;-76
2022/09/12 07:09:32;;;;;;;38.83;24.20;;;15.70;99.90;;;;;;4956957;28;20078;-76
2022/09/12 07:12:05;;;;;;;39.72;22.83;;;15.70;99.90;;;;;;4941512;28;20058;-76
2022/09/12 07:14:30;;;;;;;35.35;23.10;;;15.80;99.90;;;;;;4941941;28;20051;-80
2022/09/12 07:17:03;;;;;;;37.00;23.75;;;15.70;99.90;;;;;;4957548;28;20068;-80
2022/09/12 07:19:31;;;;;;;40.53;24.55;;;15.80;99.90;;;;;;4957247;28;20424;-80
2022/09/12 07:22:06;;;;;;;33.53;22.15;;;15.80;99.90;;;;;;4942484;28;20051;-80
2022/09/12 07:24:33;;;;;;;39.80;23.45;;;15.90;99.90;;;;;;4957307;28;20065;-80
2022/09/12 07:27:17;;;;;;;35.28;21.85;;;15.90;99.90;;;;;;4956979;28;20086;-80
2022/09/12 07:29:46;;;;;;;33.78;19.17;;;16.00;99.90;;;;;;4939213;28;20070;-81
2022/09/12 07:32:13;;;;;;;37.38;25.35;;;16.10;99.90;;;;;;4957485;28;20050;-80
2022/09/12 07:34:39;;;;;;;34.78;20.70;;;16.20;99.90;;;;;;4941471;28;20094;-80
2022/09/12 07:37:14;;;;;;;40.22;23.17;;;16.30;99.90;;;;;;4941242;28;20055;-81
2022/09/12 07:39:40;;;;;;;33.65;21.35;;;16.40;99.90;;;;;;4957072;28;20051;-80
2022/09/12 07:42:06;;;;;;;37.45;22.52;;;16.50;99.90;;;;;;4956423;28;20424;-80
2022/09/12 07:44:32;;;;;;;32.50;20.60;;;16.70;99.90;;;;;;4940803;28;20082;-80
2022/09/12 07:47:17;;;;;;;32.53;21.02;;;16.90;99.90;;;;;;4958980;28;20160;-80
2022/09/12 07:49:51;;;;;;;33.03;21.95;;;17.10;99.90;;;;;;4957890;28;20047;-80
2022/09/12 07:52:18;;;;;;;35.25;21.38;;;17.20;99.90;;;;;;4940363;28;20182;-80
2022/09/12 07:54:45;;;;;;;31.35;19.42;;;17.50;99.90;;;;;;4943661;28;20055;-80
2022/09/12 07:57:11;;;;;;;33.90;19.33;;;17.90;99.90;;;;;;4963617;28;20051;-80
2022/09/12 07:59:41;;;;;;;29.50;17.95;;;18.10;99.90;;;;;;4946745;28;20069;-80
2022/09/12 08:02:21;;;;;;;33.80;19.50;;;18.30;99.90;;;;;;4963290;28;20507;-80
2022/09/12 08:04:47;;;;;;;30.73;18.13;;;18.30;99.90;;;;;;4947547;28;20050;-80
2022/09/12 08:07:18;;;;;;;30.10;17.90;;;18.20;99.90;;;;;;4962177;28;20498;-80
2022/09/12 08:09:43;;;;;;;28.90;17.27;;;18.00;99.90;;;;;;4946772;28;20059;-80
2022/09/12 08:12:16;;;;;;;24.75;16.38;;;17.90;99.90;;;;;;4947448;28;20452;-80
2022/09/12 08:14:47;;;;;;;28.95;16.02;;;17.90;99.90;;;;;;4962736;28;20047;-80
2022/09/12 08:17:34;;;;;;;27.02;16.27;;;17.80;99.90;;;;;;4962613;28;20093;-80
2022/09/12 08:20:06;;;;;;;24.33;13.93;;;17.80;99.90;;;;;;4963422;28;20117;-80
2022/09/12 08:22:31;;;;;;;23.67;15.25;;;17.90;99.90;;;;;;4962813;28;20074;-80
2022/09/12 08:24:59;;;;;;;22.40;14.27;;;17.90;99.90;;;;;;4946738;28;20046;-80
2022/09/12 08:27:38;;;;;;;23.88;15.32;;;18.00;99.90;;;;;;4948185;28;20105;-80
2022/09/12 08:30:06;;;;;;;24.23;15.15;;;18.10;99.90;;;;;;4979940;28;20074;-80
2022/09/12 08:32:33;;;;;;;22.77;14.75;;;18.30;99.90;;;;;;4946564;28;20055;-80
2022/09/12 08:34:59;;;;;;;24.77;14.60;;;18.50;99.90;;;;;;4946756;28;20061;-81
2022/09/12 08:37:31;;;;;;;22.17;14.23;;;18.60;99.90;;;;;;4962040;28;20086;-80
2022/09/12 08:39:57;;;;;;;18.05;12.00;;;18.70;99.90;;;;;;4963190;28;20053;-80
2022/09/12 08:42:53;;;;;;;21.55;13.10;;;18.80;99.90;;;;;;4963270;28;20485;-81
2022/09/12 08:45:47;;;;;;;17.75;12.73;;;18.90;99.90;;;;;;4947213;28;20394;-80
2022/09/12 08:48:13;;;;;;;19.10;12.35;;;18.90;99.90;;;;;;4979289;28;20055;-80
2022/09/12 08:50:53;;;;;;;21.10;12.77;;;18.90;99.90;;;;;;4946187;28;20502;-79
2022/09/12 08:53:26;;;;;;;19.73;13.98;;;18.90;99.90;;;;;;4962136;28;20074;-80
2022/09/12 08:56:34;;;;;;;21.10;12.77;;;18.90;99.90;;;;;;4965460;28;20105;-80
2022/09/12 08:59:12;;;;;;;19.70;12.70;;;18.70;99.90;;;;;;4962824;28;20567;-80
2022/09/12 09:01:44;;;;;;;19.75;14.20;;;19.00;99.90;;;;;;4962680;28;20042;-80
2022/09/12 09:04:45;;;;;;;22.60;13.40;;;19.00;99.90;;;;;;4946298;28;20051;-80
2022/09/12 09:07:55;;;;;;;25.58;13.85;;;19.00;99.90;;;;;;4959113;28;20471;-80
2022/09/12 09:10:39;;;;;;;20.65;13.60;;;19.10;99.90;;;;;;4958859;28;20376;-80
2022/09/12 09:13:12;;;;;;;19.92;13.35;;;19.20;99.90;;;;;;4960686;28;20051;-80
2022/09/12 09:16:06;;;;;;;28.50;13.20;;;19.30;99.90;;;;;;4944007;28;20402;-80
2022/09/12 09:18:34;;;;;;;28.98;15.27;;;19.40;99.90;;;;;;4943560;28;20047;-80
2022/09/12 09:21:42;;;;;;;26.52;15.27;;;19.40;99.90;;;;;;4943421;28;20050;-80
2022/09/12 09:24:15;;;;;;;27.00;15.43;;;19.60;99.90;;;;;;4975068;28;20136;-80
2022/09/12 09:27:18;;;;;;;23.42;15.38;;;19.90;99.90;;;;;;4976359;28;20072;-80
2022/09/12 09:29:52;;;;;;;20.02;13.45;;;20.30;99.90;;;;;;4959021;28;20367;-80
2022/09/12 09:32:27;;;;;;;24.00;15.38;;;20.80;99.90;;;;;;4943095;28;20106;-80
2022/09/12 09:34:53;;;;;;;25.67;15.52;;;21.30;99.90;;;;;;4959146;28;20483;-80
2022/09/12 09:37:36;;;;;;;24.33;15.50;;;21.70;99.90;;;;;;4959070;28;20451;-80
2022/09/12 09:40:24;;;;;;;23.10;13.98;;;22.10;99.90;;;;;;4943151;28;20072;-80
2022/09/12 09:43:39;;;;;;;23.40;14.80;;;22.30;99.90;;;;;;4901465;29;20105;-80
2022/09/12 09:46:06;;;;;;;24.75;15.95;;;22.80;99.90;;;;;;4897081;29;20068;-79
2022/09/12 09:48:40;;;;;;;27.85;17.13;;;23.30;99.90;;;;;;4885327;29;20059;-80
2022/09/12 09:51:08;;;;;;;25.13;16.00;;;23.80;99.90;;;;;;4884967;29;20499;-80
2022/09/12 09:53:50;;;;;;;28.23;16.83;;;24.20;99.90;;;;;;4900323;29;20535;-77
2022/09/12 09:56:38;;;;;;;30.17;17.25;;;24.20;99.90;;;;;;4898725;29;20131;-79
2022/09/12 09:59:33;;;;;;;25.52;17.98;;;24.40;98.80;;;;;;4916032;29;20157;-80
2022/09/12 10:02:27;;;;;;;21.38;16.02;;;24.80;97.10;;;;;;4914541;29;20068;-80
2022/09/12 10:04:58;;;;;;;30.33;17.08;;;25.00;99.40;;;;;;4900673;29;20064;-79
2022/09/12 10:07:26;;;;;;;27.02;17.42;;;25.60;99.60;;;;;;4901077;29;20063;-79
2022/09/12 10:10:12;;;;;;;30.20;17.42;;;25.90;98.60;;;;;;4904465;29;20123;-80
2022/09/12 10:12:39;;;;;;;25.33;16.75;;;25.90;94.30;;;;;;4904752;28;20381;-80
2022/09/12 10:15:25;;;;;;;25.95;16.98;;;26.10;98.00;;;;;;4948882;28;20053;-79
2022/09/12 10:17:54;;;;;;;26.65;18.00;;;26.80;94.20;;;;;;4941861;28;20047;-80
2022/09/12 10:20:43;;;;;;;25.10;15.45;;;27.20;96.70;;;;;;4942016;28;20482;-79
2022/09/12 10:23:36;;;;;;;28.67;17.83;;;27.80;93.00;;;;;;4942246;28;20125;-80
2022/09/12 10:26:07;;;;;;;23.65;16.35;;;27.70;94.20;;;;;;4958574;28;20051;-80
2022/09/12 10:28:42;;;;;;;22.13;16.55;;;28.10;93.80;;;;;;4942425;28;20563;-77
2022/09/12 10:31:28;;;;;;;18.77;14.07;;;28.60;94.10;;;;;;4958831;28;20061;-78
2022/09/12 10:33:57;;;;;;;23.02;14.50;;;29.10;92.70;;;;;;4899882;29;20056;-77
2022/09/12 10:36:24;;;;;;;25.08;15.85;;;28.70;92.60;;;;;;4899634;29;20135;-80
2022/09/12 10:38:57;;;;;;;23.05;14.65;;;28.60;92.60;;;;;;4883718;29;20045;-80
2022/09/12 10:41:24;;;;;;;23.23;15.63;;;28.40;91.70;;;;;;4899544;29;20055;-80
2022/09/12 10:44:18;;;;;;;25.20;16.27;;;27.90;92.00;;;;;;4899856;29;20048;-78
2022/09/12 10:46:55;;;;;;;25.92;15.00;;;27.40;90.10;;;;;;4900331;29;20056;-78
2022/09/12 10:49:41;;;;;;;23.98;15.38;;;26.30;92.30;;;;;;4883634;29;20120;-79
2022/09/12 10:52:28;;;;;;;22.40;15.30;;;25.60;92.90;;;;;;4915235;29;20063;-79
2022/09/12 10:55:07;;;;;;;22.60;14.85;;;24.80;93.10;;;;;;4899324;29;20099;-78
2022/09/12 10:57:56;;;;;;;21.45;15.07;;;24.60;93.60;;;;;;4899808;29;20060;-81
2022/09/12 11:00:29;;;;;;;23.50;15.10;;;24.40;94.50;;;;;;4900527;29;20044;-80
2022/09/12 11:03:27;;;;;;;19.52;13.25;;;24.30;95.00;;;;;;4868030;29;20073;-78
2022/09/12 11:06:06;;;;;;;22.08;14.32;;;24.20;94.70;;;;;;4899366;29;20512;-79
2022/09/12 11:08:38;;;;;;;21.63;12.82;;;24.10;94.90;;;;;;4868417;29;20554;-78
2022/09/12 11:11:50;;;;;;;19.35;14.00;;;23.90;95.00;;;;;;4914360;29;20494;-79
2022/09/12 11:15:02;;;;;;;18.50;12.02;;;23.90;94.40;;;;;;4953980;29;20059;-79
2022/09/12 11:17:46;;;;;;;;;;;23.80;94.40;;;;;;4939419;29;20046;-78
2022/09/12 11:20:39;;;;;;;20.35;12.15;;;23.60;95.20;;;;;;4954180;29;19978;-78
2022/09/12 11:23:44;;;;;;;16.48;11.35;;;23.70;95.50;;;;;;4938216;29;20051;-78
2022/09/12 11:26:31;;;;;;;22.67;12.60;;;23.80;94.70;;;;;;4938312;29;20055;-79
2022/09/12 11:29:28;;;;;;;16.33;9.60;;;23.80;94.80;;;;;;4937078;29;20047;-79
2022/09/12 11:32:02;;;;;;;15.82;10.18;;;23.80;94.70;;;;;;4953914;29;20058;-78
2022/09/12 11:34:57;;;;;;;16.90;10.27;;;23.80;95.00;;;;;;4937639;29;20175;-78
2022/09/12 11:38:01;;;;;;;16.65;10.90;;;23.90;94.40;;;;;;4969757;28;20093;-77
2022/09/12 11:40:29;;;;;;;;;;;23.90;94.50;;;;;;4953957;29;20055;-78
2022/09/12 11:43:04;;;;;;;12.73;8.82;;;24.00;94.90;;;;;;4953861;29;19926;-79
2022/09/12 11:45:52;;;;;;;16.02;10.93;;;24.10;93.50;;;;;;4953487;29;20062;-78
2022/09/12 11:48:56;;;;;;;13.77;8.60;;;24.10;93.00;;;;;;4954526;28;20051;-78
2022/09/12 11:51:38;;;;;;;11.38;8.02;;;24.20;93.80;;;;;;4967937;28;20394;-79
2022/09/12 11:54:48;;;;;;;11.18;8.05;;;24.00;93.30;;;;;;4953707;28;20137;-78
2022/09/12 11:57:32;;;;;;;11.32;7.70;;;24.10;93.30;;;;;;4956551;28;20117;-79
2022/09/12 12:00:09;;;;;;;12.55;8.43;;;24.10;93.90;;;;;;4956838;28;20097;-78
2022/09/12 12:02:54;;;;;;;11.55;8.25;;;24.20;93.50;;;;;;4956480;28;20050;-79
2022/09/12 12:06:00;;;;;;;13.10;8.93;;;24.20;93.80;;;;;;4973653;28;20056;-78
2022/09/12 12:08:45;;;;;;;10.85;8.07;;;24.20;94.20;;;;;;4971462;28;20058;-79
2022/09/12 12:11:15;;;;;;;15.30;8.80;;;24.10;93.90;;;;;;4956691;28;20070;-80
2022/09/12 12:14:03;;;;;;;9.25;7.43;;;24.10;92.80;;;;;;4956511;28;20050;-79
2022/09/12 12:16:40;;;;;;;13.48;8.18;;;24.10;92.60;;;;;;4955578;28;20051;-80
2022/09/12 12:19:34;;;;;;;14.77;8.95;;;24.00;93.00;;;;;;4973039;28;20120;-79
2022/09/12 12:22:25;;;;;;;12.50;8.93;;;24.10;93.60;;;;;;4956771;28;20042;-79
2022/09/12 12:25:29;;;;;;;14.13;8.30;;;24.20;93.70;;;;;;4956845;28;20055;-79
2022/09/12 12:28:05;;;;;;;13.35;9.35;;;24.30;92.90;;;;;;4971347;28;20105;-79
2022/09/12 12:31:08;;;;;;;12.95;8.23;;;24.40;93.00;;;;;;4956830;28;20371;-79
2022/09/12 12:33:59;;;;;;;8.45;7.05;;;24.30;93.30;;;;;;4956136;28;20082;-78
2022/09/12 12:36:45;;;;;;;12.45;8.40;;;24.50;92.80;;;;;;4956511;28;20478;-79
2022/09/12 12:39:49;;;;;;;14.02;8.25;;;24.60;93.00;;;;;;4971854;28;20054;-79
2022/09/12 12:42:36;;;;;;;10.55;7.60;;;24.70;92.20;;;;;;4959643;28;20047;-79
2022/09/12 12:45:18;;;;;;;11.63;7.95;;;24.80;92.50;;;;;;4976416;28;20058;-79
2022/09/12 12:47:52;;;;;;;12.90;8.23;;;24.80;91.50;;;;;;4976237;28;20073;-79
2022/09/12 12:50:22;;;;;;;7.75;5.90;;;24.90;92.40;;;;;;4959972;28;20101;-79
2022/09/12 12:53:03;;;;;;;8.95;5.68;;;24.90;92.40;;;;;;4959878;28;20053;-79
2022/09/12 12:55:54;;;;;;;9.23;6.65;;;24.90;92.40;;;;;;4971869;28;20063;-79
2022/09/12 12:58:43;;;;;;;9.45;6.40;;;24.90;92.20;;;;;;4972555;28;20062;-79
2022/09/12 13:01:13;;;;;;;11.48;7.05;;;24.90;92.70;;;;;;4956080;29;20051;-78
2022/09/12 13:04:03;;;;;;;9.02;6.28;;;25.10;92.20;;;;;;4957678;29;20051;-79
2022/09/12 13:06:34;;;;;;;12.60;7.28;;;25.10;91.30;;;;;;4956843;28;20051;-79
2022/09/12 13:09:25;;;;;;;12.40;8.02;;;25.00;92.20;;;;;;4940355;29;20553;-78
2022/09/12 13:12:04;;;;;;;14.70;8.27;;;24.90;91.30;;;;;;4926052;29;20087;-79
2022/09/12 13:14:45;;;;;;;13.50;8.82;;;24.90;91.80;;;;;;4956193;29;20047;-79
2022/09/12 13:17:43;;;;;;;12.60;7.93;;;24.80;91.70;;;;;;4956239;29;20066;-79
2022/09/12 13:20:11;;;;;;;14.02;8.23;;;24.90;92.30;;;;;;4924487;29;20487;-79
2022/09/12 13:22:45;;;;;;;10.52;6.57;;;24.90;92.40;;;;;;4939750;29;20059;-79
2022/09/12 13:25:21;;;;;;;9.85;7.10;;;24.90;91.50;;;;;;4939782;29;20062;-78
2022/09/12 13:28:10;;;;;;;9.50;6.72;;;24.90;91.30;;;;;;4971955;28;20047;-79
2022/09/12 13:30:41;;;;;;;7.82;6.13;;;25.00;91.30;;;;;;4971997;28;20167;-79
2022/09/12 13:33:44;;;;;;;12.50;6.95;;;25.00;91.80;;;;;;4956377;29;20051;-79
2022/09/12 13:36:50;;;;;;;9.98;6.95;;;25.10;91.70;;;;;;4971896;28;20055;-79
2022/09/12 13:40:00;;;;;;;9.60;6.50;;;25.30;91.60;;;;;;4956459;28;20060;-79